Time,TemperatureF,DewpointF,PressureIn,WindDirection,WindDirectionDegrees,WindSpeedMPH,WindSpeedGustMPH,Humidity,HourlyPrecipIn,Conditions,Clouds,dailyrainin,SolarRadiationWatts/m^2,SoftwareType,DateUTC
2013-05-09 00:03:00,55.0,54.0,-100.00,East,90,4.0,8.0,96,0.00,,,1.44,0.000000,,2013-05-09 04:03:00,
2013-05-09 00:10:00,54.0,53.0,-100.00,ENE,78,5.0,8.0,97,0.00,,,1.44,0.000000,,2013-05-09 04:10:00,
2013-05-09 00:33:00,54.0,53.0,-100.00,ENE,78,5.0,8.0,97,0.00,,,1.44,0.000000,,2013-05-09 04:33:00,
2013-05-09 00:43:00,54.0,53.0,-100.00,ENE,78,5.0,8.0,97,0.00,,,1.44,0.000000,,2013-05-09 04:43:00,
2013-05-09 00:53:00,54.0,53.0,-100.00,ENE,78,5.0,8.0,97,0.00,,,1.44,0.000000,,2013-05-09 04:53:00,
2013-05-09 01:02:00,54.0,53.0,-100.00,ENE,78,5.0,8.0,97,0.00,,,1.44,0.000000,,2013-05-09 05:02:00,
2013-05-09 01:10:00,53.0,52.0,-100.00,ESE,103,4.0,7.0,96,0.00,,,1.44,0.000000,,2013-05-09 05:10:00,
2013-05-09 01:32:00,53.0,52.0,-100.00,ESE,103,4.0,7.0,96,0.00,,,1.44,0.000000,,2013-05-09 05:32:00,
2013-05-09 01:43:00,53.0,52.0,-100.00,ESE,103,4.0,7.0,96,0.00,,,1.44,0.000000,,2013-05-09 05:43:00,
2013-05-09 01:52:00,53.0,52.0,-100.00,ESE,103,4.0,7.0,96,0.00,,,1.44,0.000000,,2013-05-09 05:52:00,
2013-05-09 02:02:00,53.0,52.0,-100.00,ESE,103,4.0,7.0,96,0.00,,,1.44,0.000000,,2013-05-09 06:02:00,
2013-05-09 02:10:00,53.0,52.0,-100.00,ESE,112,5.0,8.0,98,0.00,,,1.42,0.000000,,2013-05-09 06:10:00,
2013-05-09 02:42:00,53.0,52.0,-100.00,ESE,112,5.0,8.0,98,0.00,,,1.42,0.000000,,2013-05-09 06:42:00,
2013-05-09 02:52:00,53.0,52.0,-100.00,ESE,112,5.0,8.0,98,0.00,,,1.42,0.000000,,2013-05-09 06:52:00,
2013-05-09 03:01:00,53.0,52.0,-100.00,ESE,112,5.0,8.0,98,0.00,,,1.42,0.000000,,2013-05-09 07:01:00,
2013-05-09 03:10:00,52.0,51.0,-100.00,ESE,116,3.0,6.0,98,0.00,,,1.39,0.000000,,2013-05-09 07:10:00,
2013-05-09 03:43:00,52.0,51.0,-100.00,ESE,116,3.0,6.0,98,0.00,,,1.39,0.000000,,2013-05-09 07:43:00,
2013-05-09 03:52:00,52.0,51.0,-100.00,ESE,116,3.0,6.0,98,0.00,,,1.39,0.000000,,2013-05-09 07:52:00,
2013-05-09 04:02:00,52.0,51.0,-100.00,ESE,116,3.0,6.0,98,0.00,,,1.39,0.000000,,2013-05-09 08:02:00,
2013-05-09 04:10:00,52.0,51.0,-100.00,NE,37,2.0,6.0,98,0.00,,,1.39,0.000000,,2013-05-09 08:10:00,
2013-05-09 04:42:00,52.0,51.0,-100.00,NE,37,2.0,6.0,98,0.00,,,1.39,0.000000,,2013-05-09 08:42:00,
2013-05-09 04:52:00,52.0,51.0,-100.00,NE,37,2.0,6.0,98,0.00,,,1.39,0.000000,,2013-05-09 08:52:00,
2013-05-09 05:02:00,52.0,51.0,-100.00,NE,37,2.0,6.0,98,0.00,,,1.39,0.000000,,2013-05-09 09:02:00,
2013-05-09 05:10:00,52.0,52.0,-100.00,East,87,7.0,9.0,99,0.01,,,1.40,0.000000,,2013-05-09 09:10:00,
2013-05-09 05:32:00,52.0,52.0,-100.00,East,87,7.0,9.0,99,0.01,,,1.40,0.000000,,2013-05-09 09:32:00,
2013-05-09 05:43:00,52.0,52.0,-100.00,East,87,7.0,9.0,99,0.01,,,1.40,0.000000,,2013-05-09 09:43:00,
2013-05-09 05:53:00,52.0,52.0,-100.00,East,87,7.0,9.0,99,0.01,,,1.40,0.000000,,2013-05-09 09:53:00,
2013-05-09 06:02:00,52.0,52.0,-100.00,East,87,7.0,9.0,99,0.01,,,1.40,0.000000,,2013-05-09 10:02:00,
2013-05-09 06:10:00,52.0,52.0,-100.00,ESE,107,6.0,8.0,99,0.00,,,1.40,1.000000,,2013-05-09 10:10:00,
2013-05-09 06:42:00,52.0,52.0,-100.00,ESE,107,6.0,8.0,99,0.00,,,1.40,1.000000,,2013-05-09 10:42:00,
2013-05-09 06:53:00,52.0,52.0,-100.00,ESE,107,6.0,8.0,99,0.00,,,1.40,1.000000,,2013-05-09 10:53:00,
2013-05-09 07:02:00,52.0,52.0,-100.00,ESE,107,6.0,8.0,99,0.00,,,1.40,1.000000,,2013-05-09 11:02:00,
2013-05-09 07:10:00,52.0,52.0,-100.00,East,88,5.0,8.0,99,0.03,,,1.42,31.000000,,2013-05-09 11:10:00,
2013-05-09 07:32:00,52.0,52.0,-100.00,East,88,5.0,8.0,99,0.03,,,1.42,31.000000,,2013-05-09 11:32:00,
2013-05-09 07:42:00,52.0,52.0,-100.00,East,88,5.0,8.0,99,0.03,,,1.42,31.000000,,2013-05-09 11:42:00,
2013-05-09 07:52:00,52.0,52.0,-100.00,East,88,5.0,8.0,99,0.03,,,1.42,31.000000,,2013-05-09 11:52:00,
2013-05-09 08:01:00,52.0,52.0,-100.00,East,88,5.0,8.0,99,0.03,,,1.42,31.000000,,2013-05-09 12:01:00,
2013-05-09 08:10:00,53.0,53.0,-100.00,NE,51,4.0,7.0,100,0.10,,,-99.99,32.000000,,2013-05-09 12:10:00,
2013-05-09 08:43:00,53.0,53.0,-100.00,NE,51,4.0,7.0,100,0.10,,,-99.99,32.000000,,2013-05-09 12:43:00,
2013-05-09 08:52:00,53.0,53.0,-100.00,NE,51,4.0,7.0,100,0.10,,,-99.99,32.000000,,2013-05-09 12:52:00,
2013-05-09 09:02:00,53.0,53.0,-100.00,NE,51,4.0,7.0,100,0.10,,,-99.99,32.000000,,2013-05-09 13:02:00,
2013-05-09 09:10:00,54.0,54.0,-100.00,East,86,5.0,8.0,100,0.05,,,1.45,89.000000,,2013-05-09 13:10:00,
2013-05-09 09:32:00,54.0,54.0,-100.00,East,86,5.0,8.0,100,0.05,,,1.45,89.000000,,2013-05-09 13:32:00,
2013-05-09 09:42:00,54.0,54.0,-100.00,East,86,5.0,8.0,100,0.05,,,1.45,89.000000,,2013-05-09 13:42:00,
2013-05-09 09:52:00,54.0,54.0,-100.00,East,86,5.0,8.0,100,0.05,,,1.45,89.000000,,2013-05-09 13:52:00,
2013-05-09 10:02:00,54.0,54.0,-100.00,East,86,5.0,8.0,100,0.05,,,1.45,89.000000,,2013-05-09 14:02:00,
2013-05-09 10:10:00,56.0,56.0,-100.00,ESE,116,3.0,7.0,99,0.00,,,1.43,234.000000,,2013-05-09 14:10:00,
2013-05-09 10:32:00,56.0,56.0,-100.00,ESE,116,3.0,7.0,99,0.00,,,1.43,234.000000,,2013-05-09 14:32:00,
2013-05-09 10:42:00,56.0,56.0,-100.00,ESE,116,3.0,7.0,99,0.00,,,1.43,234.000000,,2013-05-09 14:42:00,
2013-05-09 10:52:00,56.0,56.0,-100.00,ESE,116,3.0,7.0,99,0.00,,,1.43,234.000000,,2013-05-09 14:52:00,
2013-05-09 11:02:00,56.0,56.0,-100.00,ESE,116,3.0,7.0,99,0.00,,,1.43,234.000000,,2013-05-09 15:02:00,
2013-05-09 11:10:00,58.0,55.0,-100.00,WSW,253,3.0,5.0,89,0.00,,,1.24,237.000000,,2013-05-09 15:10:00,
2013-05-09 11:43:00,58.0,55.0,-100.00,WSW,253,3.0,5.0,89,0.00,,,1.24,237.000000,,2013-05-09 15:43:00,
2013-05-09 11:53:00,58.0,55.0,-100.00,WSW,253,3.0,5.0,89,0.00,,,1.24,237.000000,,2013-05-09 15:53:00,
2013-05-09 12:03:00,58.0,55.0,-100.00,WSW,253,3.0,5.0,89,0.00,,,1.24,237.000000,,2013-05-09 16:03:00,
2013-05-09 12:10:00,63.0,57.0,-100.00,SW,228,4.0,8.0,82,0.00,,,0.79,638.000000,,2013-05-09 16:10:00,
2013-05-09 12:42:00,63.0,57.0,-100.00,SW,228,4.0,8.0,82,0.00,,,0.79,638.000000,,2013-05-09 16:42:00,
2013-05-09 12:53:00,63.0,57.0,-100.00,SW,228,4.0,8.0,82,0.00,,,0.79,638.000000,,2013-05-09 16:53:00,
2013-05-09 13:02:00,63.0,57.0,-100.00,SW,228,4.0,8.0,82,0.00,,,0.79,638.000000,,2013-05-09 17:02:00,
2013-05-09 13:10:00,64.0,54.0,-100.00,West,263,5.0,11.0,71,0.00,,,0.52,777.000000,,2013-05-09 17:10:00,
2013-05-09 13:32:00,64.0,54.0,-100.00,West,263,5.0,11.0,71,0.00,,,0.52,777.000000,,2013-05-09 17:32:00,
2013-05-09 13:42:00,64.0,54.0,-100.00,West,263,5.0,11.0,71,0.00,,,0.52,777.000000,,2013-05-09 17:42:00,
2013-05-09 13:55:00,64.0,54.0,-100.00,West,263,5.0,11.0,71,0.00,,,0.52,777.000000,,2013-05-09 17:55:00,
2013-05-09 14:02:00,64.0,54.0,-100.00,West,263,5.0,11.0,71,0.00,,,0.52,777.000000,,2013-05-09 18:02:00,
2013-05-09 14:10:00,65.0,53.0,-100.00,NW,317,4.0,11.0,66,0.00,,,0.52,719.000000,,2013-05-09 18:10:00,
2013-05-09 14:42:00,65.0,53.0,-100.00,NW,317,4.0,11.0,66,0.00,,,0.52,719.000000,,2013-05-09 18:42:00,
2013-05-09 14:52:00,65.0,53.0,-100.00,NW,317,4.0,11.0,66,0.00,,,0.52,719.000000,,2013-05-09 18:52:00,
2013-05-09 15:01:00,65.0,53.0,-100.00,NW,317,4.0,11.0,66,0.00,,,0.52,719.000000,,2013-05-09 19:01:00,
2013-05-09 16:10:00,64.0,53.0,-100.00,West,259,7.0,13.0,67,-99.99,,,0.51,349.000000,,2013-05-09 20:10:00,
2013-05-09 16:32:00,64.0,53.0,-100.00,West,259,7.0,13.0,67,-99.99,,,0.51,349.000000,,2013-05-09 20:32:00,
2013-05-09 16:42:00,64.0,53.0,-100.00,West,259,7.0,13.0,67,-99.99,,,0.51,349.000000,,2013-05-09 20:42:00,
2013-05-09 16:52:00,64.0,53.0,-100.00,West,259,7.0,13.0,67,-99.99,,,0.51,349.000000,,2013-05-09 20:52:00,
2013-05-09 17:02:00,64.0,53.0,-100.00,West,259,7.0,13.0,67,-99.99,,,0.51,349.000000,,2013-05-09 21:02:00,
2013-05-09 18:10:00,65.0,54.0,-100.00,West,261,6.0,9.0,67,-99.99,,,0.51,254.000000,,2013-05-09 22:10:00,
2013-05-09 18:33:00,65.0,54.0,-100.00,West,261,6.0,9.0,67,-99.99,,,0.51,254.000000,,2013-05-09 22:33:00,
2013-05-09 18:42:00,65.0,54.0,-100.00,West,261,6.0,9.0,67,-99.99,,,0.51,254.000000,,2013-05-09 22:42:00,
2013-05-09 18:52:00,65.0,54.0,-100.00,West,261,6.0,9.0,67,-99.99,,,0.51,254.000000,,2013-05-09 22:52:00,
2013-05-09 19:02:00,65.0,54.0,-100.00,West,261,6.0,9.0,67,-99.99,,,0.51,254.000000,,2013-05-09 23:02:00,
2013-05-09 19:10:00,63.0,51.0,-100.00,WSW,253,4.0,8.0,65,0.00,,,0.51,157.000000,,2013-05-09 23:10:00,
2013-05-09 19:32:00,63.0,51.0,-100.00,WSW,253,4.0,8.0,65,0.00,,,0.51,157.000000,,2013-05-09 23:32:00,
2013-05-09 19:42:00,63.0,51.0,-100.00,WSW,253,4.0,8.0,65,0.00,,,0.51,157.000000,,2013-05-09 23:42:00,
2013-05-09 19:52:00,63.0,51.0,-100.00,WSW,253,4.0,8.0,65,0.00,,,0.51,157.000000,,2013-05-09 23:52:00,
2013-05-09 20:01:00,63.0,51.0,-100.00,WSW,253,4.0,8.0,65,0.00,,,0.51,157.000000,,2013-05-10 00:01:00,
2013-05-09 21:10:00,58.0,54.0,-100.00,West,262,2.0,7.0,86,-99.99,,,0.25,0.000000,,2013-05-10 01:10:00,
2013-05-09 21:32:00,58.0,54.0,-100.00,West,262,2.0,7.0,86,-99.99,,,0.25,0.000000,,2013-05-10 01:32:00,
2013-05-09 21:42:00,58.0,54.0,-100.00,West,262,2.0,7.0,86,-99.99,,,0.25,0.000000,,2013-05-10 01:42:00,
2013-05-09 21:52:00,58.0,54.0,-100.00,West,262,2.0,7.0,86,-99.99,,,0.25,0.000000,,2013-05-10 01:52:00,
2013-05-09 22:02:00,58.0,54.0,-100.00,West,262,2.0,7.0,86,-99.99,,,0.25,0.000000,,2013-05-10 02:02:00,
2013-05-09 22:10:00,58.0,53.0,-100.00,WNW,291,3.0,5.0,84,0.00,,,0.19,0.000000,,2013-05-10 02:10:00,
2013-05-09 22:32:00,58.0,53.0,-100.00,WNW,291,3.0,5.0,84,0.00,,,0.19,0.000000,,2013-05-10 02:32:00,
2013-05-09 22:42:00,58.0,53.0,-100.00,WNW,291,3.0,5.0,84,0.00,,,0.19,0.000000,,2013-05-10 02:42:00,
2013-05-09 22:53:00,58.0,53.0,-100.00,WNW,291,3.0,5.0,84,0.00,,,0.19,0.000000,,2013-05-10 02:53:00,
2013-05-09 23:01:00,58.0,53.0,-100.00,WNW,291,3.0,5.0,84,0.00,,,0.19,0.000000,,2013-05-10 03:01:00,
2013-05-09 23:10:00,57.0,53.0,-100.00,WNW,294,3.0,5.0,88,0.00,,,0.19,0.000000,,2013-05-10 03:10:00,
2013-05-09 23:33:00,57.0,53.0,-100.00,WNW,294,3.0,5.0,88,0.00,,,0.19,0.000000,,2013-05-10 03:33:00,
2013-05-09 23:43:00,57.0,53.0,-100.00,WNW,294,3.0,5.0,88,0.00,,,0.19,0.000000,,2013-05-10 03:43:00,
2013-05-09 23:53:00,57.0,53.0,-100.00,WNW,294,3.0,5.0,88,0.00,,,0.19,0.000000,,2013-05-10 03:53:00,